Stanleytown, Virginia
Current Conditions -  °F | °C
As of 6:55 PM on Monday 22 Dec 2014 (Local Time) from KMTV Reporting Station
Haze Haze  
Wind Chill: 32°   Ceiling: 400
Heat Index: 36°   Visibility: 4mi
Dew Point: 36°   Wind: 5mph
Humidity: 100%   Direction: 20°NNE
Pressure: 30.12"   Gusts: NA
Location:  36.75°N, 79.95°W
Report Text: KMTV 222355Z AUTO 02004KT 4SM BR OVC004 02/02 A3012 RMK AO2 60001 T00200020 10021 20018
Loading
Personal Weather Stations






























Interactive Weather Map New forecast layout! Learn more

10-Day Weather Forecast

Advertisements
Track Severe Weather on mobile